Time;durP1;ratioP1;P1;durP2;ratioP2;P2;SDS_P1;SDS_P2;PMS_P1;PMS_P2;Temp;Humidity;BMP_temperature;BMP_pressure;BME280_temperature;BME280_humidity;BME280_pressure;Samples;Min_cycle;Max_cycle;Signal;HPM_P1;HPM_P2
2022/04/29 00:01:16;;;;;;;11.93;7.38;;;;;;;7.98;71.05;102988.09;4983900;28;20034;-71
2022/04/29 00:03:42;;;;;;;12.18;7.03;;;;;;;7.95;71.04;102993.34;4986131;28;20038;-69
2022/04/29 00:06:08;;;;;;;12.93;7.07;;;;;;;7.97;71.39;102985.53;4985742;28;20042;-70
2022/04/29 00:08:33;;;;;;;13.32;7.65;;;;;;;7.78;71.97;102977.63;4985704;28;20030;-70
2022/04/29 00:10:59;;;;;;;11.38;6.80;;;;;;;7.78;71.61;102985.38;4985908;28;20027;-68
2022/04/29 00:13:24;;;;;;;11.73;6.68;;;;;;;7.81;71.65;102982.69;4985376;28;20026;-68
2022/04/29 00:15:50;;;;;;;12.27;7.28;;;;;;;7.78;71.10;102987.94;4985834;28;20041;-70
2022/04/29 00:18:16;;;;;;;11.73;6.68;;;;;;;7.71;71.55;102963.25;4984254;28;20057;-68
2022/04/29 00:20:41;;;;;;;11.75;6.50;;;;;;;7.70;71.75;102977.91;4985137;28;20026;-68
2022/04/29 00:23:08;;;;;;;12.07;6.43;;;;;;;7.69;71.84;102980.53;5000727;28;20026;-70
2022/04/29 00:25:33;;;;;;;15.20;6.68;;;;;;;7.60;71.97;102965.34;4986065;28;20030;-69
2022/04/29 00:27:58;;;;;;;11.35;6.53;;;;;;;7.60;71.18;102967.94;4985893;28;20029;-68
2022/04/29 00:30:24;;;;;;;11.95;6.57;;;;;;;7.51;71.38;102968.25;4988963;28;20481;-68
2022/04/29 00:32:49;;;;;;;11.60;6.47;;;;;;;7.57;71.60;102965.44;4991713;28;20030;-68
2022/04/29 00:35:15;;;;;;;10.38;6.22;;;;;;;7.45;72.21;102959.84;4990858;28;20026;-69
2022/04/29 00:37:52;;;;;;;10.18;6.38;;;;;;;7.49;71.56;102962.28;4987867;28;20145;-69
2022/04/29 00:40:20;;;;;;;13.60;6.30;;;;;;;7.31;72.08;102951.69;4990151;28;20069;-68
2022/04/29 00:42:46;;;;;;;11.65;6.47;;;;;;;7.36;71.69;102961.88;5009128;28;20030;-68
2022/04/29 00:45:13;;;;;;;12.25;7.18;;;;;;;7.30;72.27;102957.75;4996220;28;20063;-70
2022/04/29 00:47:39;;;;;;;11.93;7.03;;;;;;;7.23;72.05;102961.44;5008596;28;20025;-69
2022/04/29 00:50:05;;;;;;;13.30;6.70;;;;;;;7.24;73.10;102959.72;4996243;28;20026;-68
2022/04/29 00:52:32;;;;;;;12.35;6.70;;;;;;;7.19;72.53;102959.84;4988527;28;20034;-69
2022/04/29 00:55:04;;;;;;;10.65;6.38;;;;;;;7.11;72.97;102957.53;5006092;28;20092;-69
2022/04/29 00:57:37;;;;;;;13.30;7.05;;;;;;;7.13;73.46;102952.31;5003224;28;20092;-69
2022/04/29 01:00:08;;;;;;;10.30;7.25;;;;;;;7.04;72.74;102944.88;4988334;28;20030;-68
2022/04/29 01:02:38;;;;;;;12.35;6.97;;;;;;;7.03;73.20;102935.44;4994519;28;20044;-68
2022/04/29 01:05:23;;;;;;;12.52;7.13;;;;;;;7.10;73.50;102949.81;5008345;28;20401;-69
2022/04/29 01:07:50;;;;;;;10.18;6.55;;;;;;;6.97;73.67;102941.66;4989276;28;20034;-68
2022/04/29 01:10:20;;;;;;;12.35;7.68;;;;;;;7.01;72.84;102945.00;5007057;28;20116;-69
2022/04/29 01:12:50;;;;;;;11.93;7.25;;;;;;;6.94;73.07;102939.19;5006937;28;20029;-68
2022/04/29 01:15:20;;;;;;;13.10;7.15;;;;;;;6.88;73.65;102940.22;4970496;28;20042;-69
2022/04/29 01:17:47;;;;;;;12.30;7.38;;;;;;;6.83;74.15;102931.78;4987824;28;20030;-69
2022/04/29 01:20:15;;;;;;;11.35;7.32;;;;;;;6.80;74.31;102937.03;4991441;28;20097;-69
2022/04/29 01:22:45;;;;;;;12.68;7.45;;;;;;;6.83;73.52;102931.78;4987962;28;20030;-68
2022/04/29 01:25:11;;;;;;;12.48;7.70;;;;;;;6.73;74.39;102920.06;4988108;28;20080;-68
2022/04/29 01:27:37;;;;;;;13.35;8.18;;;;;;;6.75;73.89;102933.75;4988042;28;20034;-69
2022/04/29 01:30:02;;;;;;;12.82;7.72;;;;;;;6.75;73.82;102926.00;4988075;28;20029;-70
2022/04/29 01:32:30;;;;;;;11.20;7.40;;;;;;;6.72;74.49;102918.41;4988269;28;20030;-69
2022/04/29 01:34:56;;;;;;;14.38;8.07;;;;;;;6.70;74.91;102912.41;4987855;28;20125;-68
2022/04/29 01:37:21;;;;;;;15.68;7.75;;;;;;;6.70;74.29;102920.16;4987221;28;20474;-68
2022/04/29 01:39:47;;;;;;;12.18;8.93;;;;;;;6.65;74.47;102922.03;4987815;28;20148;-67
2022/04/29 01:42:12;;;;;;;12.93;8.32;;;;;;;6.64;74.65;102903.16;5005077;28;20042;-69
2022/04/29 01:44:38;;;;;;;15.77;8.10;;;;;;;6.65;74.99;102911.72;5007257;28;20026;-69
2022/04/29 01:47:03;;;;;;;14.52;8.48;;;;;;;6.62;74.30;102906.69;5021753;28;20052;-70
2022/04/29 01:49:28;;;;;;;13.65;9.07;;;;;;;6.65;74.74;102909.16;4997153;28;20535;-69
2022/04/29 01:51:55;;;;;;;13.20;8.40;;;;;;;6.62;74.88;102901.53;4985866;28;20072;-69
2022/04/29 01:54:20;;;;;;;15.15;8.82;;;;;;;6.63;75.43;102913.50;4992290;28;20034;-70
2022/04/29 01:56:47;;;;;;;13.63;8.88;;;;;;;6.59;74.81;102911.91;4985523;28;20474;-68
2022/04/29 01:59:13;;;;;;;13.85;9.50;;;;;;;6.59;75.22;102904.19;4987192;28;20026;-68
2022/04/29 02:01:38;;;;;;;13.43;9.35;;;;;;;6.51;75.07;102898.44;4987601;28;20077;-67
2022/04/29 02:04:04;;;;;;;17.02;9.38;;;;;;;6.56;75.25;102906.88;4987572;28;20066;-68
2022/04/29 02:06:29;;;;;;;16.15;9.65;;;;;;;6.53;75.83;102906.94;4987075;28;20022;-68
2022/04/29 02:08:55;;;;;;;14.23;8.95;;;;;;;6.49;75.36;102901.06;4987947;28;20058;-68
2022/04/29 02:11:21;;;;;;;14.50;9.27;;;;;;;6.58;75.39;102907.66;4985840;28;20022;-69
2022/04/29 02:13:47;;;;;;;17.00;9.77;;;;;;;6.48;75.99;102904.53;4986798;28;20403;-69
2022/04/29 02:16:13;;;;;;;13.00;9.18;;;;;;;6.50;75.17;102907.06;4984548;28;20105;-68
2022/04/29 02:18:39;;;;;;;14.10;9.07;;;;;;;6.54;75.46;102909.50;4969958;28;20438;-69
2022/04/29 02:21:05;;;;;;;15.18;10.07;;;;;;;6.56;74.95;102917.19;4986235;28;20466;-67
2022/04/29 02:23:30;;;;;;;13.00;9.15;;;;;;;6.48;75.62;102908.81;4987007;28;20470;-68
2022/04/29 02:25:57;;;;;;;14.27;9.82;;;;;;;6.51;75.30;102908.75;4985173;28;20026;-68
2022/04/29 02:28:23;;;;;;;14.07;9.95;;;;;;;6.47;74.91;102907.97;4979866;28;20460;-68
2022/04/29 02:30:49;;;;;;;15.45;10.05;;;;;;;6.47;75.41;102904.56;4986987;28;20393;-69
2022/04/29 02:33:14;;;;;;;14.77;10.07;;;;;;;6.48;75.36;102908.81;4986680;28;20037;-69
2022/04/29 02:35:39;;;;;;;17.38;10.05;;;;;;;6.39;75.78;102905.66;4986757;28;20026;-72
2022/04/29 02:38:05;;;;;;;15.48;10.90;;;;;;;6.43;75.66;102910.72;5002027;28;20026;-69
2022/04/29 02:40:30;;;;;;;16.42;10.30;;;;;;;6.45;75.95;102903.78;4986947;28;20453;-70
2022/04/29 02:42:56;;;;;;;14.85;10.88;;;;;;;6.37;75.76;102886.81;4986905;28;20026;-68
2022/04/29 02:45:22;;;;;;;16.30;11.23;;;;;;;6.32;75.78;102878.41;4986181;28;20399;-69
2022/04/29 02:47:47;;;;;;;18.95;11.00;;;;;;;6.35;76.02;102893.75;4986422;28;20038;-70
2022/04/29 02:50:12;;;;;;;17.17;10.98;;;;;;;6.33;75.54;102900.69;4986272;28;20069;-68
2022/04/29 02:52:37;;;;;;;15.52;11.07;;;;;;;6.33;75.84;102897.28;4990265;28;20112;-68
2022/04/29 02:55:03;;;;;;;20.30;11.73;;;;;;;6.30;76.22;102905.09;5006184;28;20038;-68
2022/04/29 02:57:28;;;;;;;20.05;11.30;;;;;;;6.30;76.20;102894.78;5000952;28;20057;-68
2022/04/29 02:59:55;;;;;;;15.65;10.88;;;;;;;6.33;76.48;102905.84;4984285;28;20386;-67
2022/04/29 03:02:20;;;;;;;16.52;10.98;;;;;;;6.30;76.29;102890.47;4986474;28;20026;-69
2022/04/29 03:04:45;;;;;;;16.02;10.93;;;;;;;6.32;75.96;102893.84;5001167;28;20073;-69
2022/04/29 03:07:11;;;;;;;16.13;10.75;;;;;;;6.37;76.25;102893.72;4986800;28;20022;-69
2022/04/29 03:09:36;;;;;;;17.20;11.93;;;;;;;6.36;76.25;102879.97;4984758;28;20422;-68
2022/04/29 03:12:01;;;;;;;15.90;10.88;;;;;;;6.34;76.10;102886.91;4986346;28;20056;-68
2022/04/29 03:14:27;;;;;;;20.60;11.63;;;;;;;6.38;75.79;102885.94;4984778;28;20081;-69
2022/04/29 03:16:52;;;;;;;15.70;11.77;;;;;;;6.27;76.32;102888.00;4986455;28;20447;-69
2022/04/29 03:19:17;;;;;;;17.00;11.52;;;;;;;6.32;76.56;102883.53;4985903;28;20034;-69
2022/04/29 03:21:43;;;;;;;16.52;12.05;;;;;;;6.22;76.64;102882.13;4986215;28;20034;-69
2022/04/29 03:24:09;;;;;;;18.20;11.57;;;;;;;6.29;76.51;102883.63;4985950;28;20030;-68
2022/04/29 03:26:35;;;;;;;17.05;11.70;;;;;;;6.29;76.40;102868.16;4986383;28;20398;-68
2022/04/29 03:29:01;;;;;;;14.50;11.23;;;;;;;6.28;76.79;102850.19;4985824;28;20036;-70
2022/04/29 03:31:26;;;;;;;18.88;12.38;;;;;;;6.20;76.41;102847.00;4985882;28;20038;-69
2022/04/29 03:33:52;;;;;;;16.40;11.65;;;;;;;6.18;76.56;102846.19;4985369;28;20299;-70
2022/04/29 03:36:17;;;;;;;16.88;11.77;;;;;;;6.13;76.92;102841.19;4985713;28;20332;-70
2022/04/29 03:38:43;;;;;;;19.63;11.88;;;;;;;6.15;76.97;102860.03;4986598;28;20058;-70
2022/04/29 03:41:09;;;;;;;18.42;12.48;;;;;;;6.05;76.68;102851.72;4986365;28;20022;-68
2022/04/29 03:43:35;;;;;;;19.70;12.18;;;;;;;6.10;77.45;102856.75;4985953;28;20411;-68
2022/04/29 03:46:00;;;;;;;21.67;12.25;;;;;;;6.11;76.87;102854.13;4985005;28;20106;-68
2022/04/29 03:48:26;;;;;;;15.25;11.15;;;;;;;6.07;77.08;102846.53;4982173;28;20085;-67
2022/04/29 03:50:52;;;;;;;17.73;11.88;;;;;;;6.00;77.70;102842.44;4985558;28;20017;-68
2022/04/29 03:53:17;;;;;;;19.17;12.52;;;;;;;6.08;77.22;102853.38;4985452;28;20045;-69
2022/04/29 03:55:42;;;;;;;18.17;11.93;;;;;;;6.03;77.75;102844.94;5000857;28;20030;-70
2022/04/29 03:58:08;;;;;;;18.40;11.75;;;;;;;6.07;76.91;102847.34;4982207;28;20125;-68
2022/04/29 04:00:34;;;;;;;17.52;12.55;;;;;;;6.09;76.87;102839.59;4984938;28;20027;-69
2022/04/29 04:03:06;;;;;;;18.05;12.13;;;;;;;6.11;77.78;102842.97;4977182;28;20344;-69
2022/04/29 04:05:33;;;;;;;16.10;11.40;;;;;;;6.13;76.52;102841.19;4983518;28;20057;-70
2022/04/29 04:07:58;;;;;;;18.17;12.05;;;;;;;6.12;77.24;102849.81;4989115;28;20113;-70
2022/04/29 04:10:24;;;;;;;19.88;11.75;;;;;;;6.14;76.75;102853.19;4984606;28;20026;-70
2022/04/29 04:12:51;;;;;;;20.08;12.07;;;;;;;6.13;76.94;102854.91;4984702;28;20034;-70
2022/04/29 04:15:19;;;;;;;18.70;12.20;;;;;;;6.18;76.77;102854.75;4985458;28;20042;-69
2022/04/29 04:17:45;;;;;;;15.10;11.32;;;;;;;6.21;76.81;102844.38;4988406;28;20040;-72
2022/04/29 04:20:12;;;;;;;19.45;11.65;;;;;;;6.19;77.00;102848.72;4988549;28;20063;-70
2022/04/29 04:22:38;;;;;;;18.35;12.10;;;;;;;6.21;76.82;102838.38;4986230;28;20532;-70
2022/04/29 04:25:05;;;;;;;16.83;12.00;;;;;;;6.14;77.37;102837.75;4989986;28;20030;-68
2022/04/29 04:27:31;;;;;;;18.67;12.00;;;;;;;6.17;76.52;102847.94;4987486;28;20040;-70
2022/04/29 04:29:58;;;;;;;22.20;12.50;;;;;;;6.14;77.16;102848.03;4988787;28;20026;-68
2022/04/29 04:32:23;;;;;;;19.52;12.02;;;;;;;6.13;77.08;102856.63;4988788;28;20034;-70
2022/04/29 04:34:52;;;;;;;21.02;12.35;;;;;;;6.09;77.27;102849.91;4988030;28;20104;-68
2022/04/29 04:37:19;;;;;;;17.60;11.10;;;;;;;6.10;77.08;102851.59;4987877;28;20177;-72
2022/04/29 04:39:45;;;;;;;17.10;11.73;;;;;;;6.14;76.69;102863.50;4989206;28;20041;-70
2022/04/29 04:42:10;;;;;;;19.08;11.73;;;;;;;6.15;77.23;102860.03;4988146;28;20030;-69
2022/04/29 04:44:35;;;;;;;19.20;12.38;;;;;;;6.13;77.28;102861.78;4989276;28;20462;-70
2022/04/29 04:47:01;;;;;;;20.17;11.60;;;;;;;6.12;76.99;102860.09;4988078;28;20034;-70
2022/04/29 04:49:26;;;;;;;19.10;12.27;;;;;;;6.18;77.11;102853.94;4987572;28;20654;-68
2022/04/29 04:51:52;;;;;;;17.42;12.23;;;;;;;6.11;76.89;102848.13;4988746;28;20030;-70
2022/04/29 04:54:17;;;;;;;19.65;12.18;;;;;;;6.12;77.30;102860.94;4989823;28;20048;-69
2022/04/29 04:56:43;;;;;;;17.38;11.65;;;;;;;6.06;77.66;102844.84;4988915;28;20039;-70
2022/04/29 04:59:08;;;;;;;19.92;12.45;;;;;;;6.10;77.43;102856.75;4986553;28;20375;-70
2022/04/29 05:01:33;;;;;;;16.55;12.10;;;;;;;6.08;77.83;102850.81;4988014;28;20443;-70
2022/04/29 05:03:59;;;;;;;19.55;11.95;;;;;;;6.11;77.63;102855.84;4988329;28;20053;-70
2022/04/29 05:06:24;;;;;;;18.55;12.02;;;;;;;6.16;77.96;102856.56;4986827;28;20076;-68
2022/04/29 05:08:49;;;;;;;20.30;11.75;;;;;;;6.10;77.53;102851.59;4989088;28;20081;-69
2022/04/29 05:11:14;;;;;;;19.90;12.48;;;;;;;6.16;77.65;102855.72;4988206;28;20030;-70
2022/04/29 05:13:40;;;;;;;18.48;12.07;;;;;;;6.11;78.01;102848.13;4986809;28;20505;-70
2022/04/29 05:16:05;;;;;;;22.15;12.00;;;;;;;6.18;77.84;102857.34;4985537;28;20130;-69
2022/04/29 05:18:31;;;;;;;20.35;12.38;;;;;;;6.20;77.54;102853.00;4983983;28;20053;-69
2022/04/29 05:20:56;;;;;;;21.58;12.07;;;;;;;6.18;77.60;102854.75;4987823;28;20034;-69
2022/04/29 05:23:22;;;;;;;19.50;12.43;;;;;;;6.19;77.97;102864.19;4983100;28;20027;-70
2022/04/29 05:25:47;;;;;;;19.80;11.98;;;;;;;6.19;77.72;102861.59;4986822;28;20034;-70
2022/04/29 05:28:12;;;;;;;17.60;11.77;;;;;;;6.16;78.46;102860.88;4984194;28;20030;-70
2022/04/29 05:30:38;;;;;;;19.83;11.02;;;;;;;6.20;77.34;102862.47;4984125;28;20029;-70
2022/04/29 05:33:05;;;;;;;19.17;11.90;;;;;;;6.19;78.00;102866.75;4987599;28;20022;-70
2022/04/29 05:35:31;;;;;;;22.42;12.27;;;;;;;6.19;78.23;102866.75;4982088;28;20031;-70
2022/04/29 05:37:56;;;;;;;19.45;12.00;;;;;;;6.17;78.04;102868.53;4984473;28;20061;-70
2022/04/29 05:43:06;;;;;;;19.27;11.82;;;;;;;6.08;78.83;102853.38;4975922;28;20442;-69
2022/04/29 05:45:32;;;;;;;19.83;11.55;;;;;;;6.14;78.84;102858.34;5013378;28;20454;-70
2022/04/29 05:47:57;;;;;;;18.80;12.30;;;;;;;6.16;78.45;102864.28;4998782;28;20038;-70
2022/04/29 05:50:22;;;;;;;18.65;12.07;;;;;;;6.17;78.93;102868.53;4987709;28;20370;-70
2022/04/29 05:52:48;;;;;;;17.33;12.15;;;;;;;6.20;79.04;102868.47;4994363;28;20045;-69
2022/04/29 05:55:14;;;;;;;19.13;11.70;;;;;;;6.21;78.88;102859.84;5007188;28;20522;-68
2022/04/29 05:57:40;;;;;;;20.77;12.63;;;;;;;6.25;79.22;102864.03;4987612;28;20030;-70
2022/04/29 06:00:06;;;;;;;17.92;11.75;;;;;;;6.28;78.88;102866.47;4968450;28;20454;-68
2022/04/29 06:02:33;;;;;;;19.75;12.77;;;;;;;6.23;78.94;102858.03;4968212;28;20466;-68
2022/04/29 06:05:01;;;;;;;21.10;12.55;;;;;;;6.22;78.71;102851.22;4968804;28;20058;-69
2022/04/29 06:07:26;;;;;;;20.83;12.05;;;;;;;6.26;78.99;102845.09;4984658;28;20042;-69
2022/04/29 06:09:52;;;;;;;21.77;13.63;;;;;;;6.30;79.48;102867.28;4987663;28;20390;-70
2022/04/29 06:12:17;;;;;;;19.30;11.77;;;;;;;6.28;79.00;102866.47;4987815;28;20030;-69
2022/04/29 06:14:45;;;;;;;18.15;11.80;;;;;;;6.37;78.86;102884.25;4988150;28;20383;-70
2022/04/29 06:17:10;;;;;;;19.50;12.23;;;;;;;6.46;79.44;102884.84;4987149;28;20044;-70
2022/04/29 06:19:36;;;;;;;21.63;12.05;;;;;;;6.47;79.19;102877.06;4986615;28;20034;-70
2022/04/29 06:22:01;;;;;;;17.63;11.57;;;;;;;6.48;79.19;102880.47;4987870;28;20513;-70
2022/04/29 06:24:26;;;;;;;21.70;12.05;;;;;;;6.51;79.45;102882.97;4987293;28;20030;-70
2022/04/29 06:26:52;;;;;;;19.15;11.57;;;;;;;6.45;79.56;102859.97;4985643;28;20152;-70
2022/04/29 06:29:17;;;;;;;21.15;11.48;;;;;;;6.49;79.45;102866.72;4986214;28;20037;-71
2022/04/29 06:31:43;;;;;;;18.00;11.45;;;;;;;6.54;79.33;102881.16;4987660;28;20533;-70
2022/04/29 06:34:08;;;;;;;23.65;13.13;;;;;;;6.59;78.83;102886.13;4987364;28;20038;-71
2022/04/29 06:36:34;;;;;;;21.80;12.85;;;;;;;6.63;79.93;102882.56;4987427;28;20389;-70
2022/04/29 06:38:59;;;;;;;22.63;12.75;;;;;;;6.64;78.64;102881.69;4986729;28;20034;-72
2022/04/29 06:41:24;;;;;;;17.55;12.35;;;;;;;6.69;79.12;102886.69;4986784;28;20050;-70
2022/04/29 06:43:50;;;;;;;24.05;11.98;;;;;;;6.70;79.49;102878.91;4986985;28;20033;-72
2022/04/29 06:46:17;;;;;;;17.98;11.90;;;;;;;6.77;78.92;102882.16;4986467;28;20065;-70
2022/04/29 06:48:42;;;;;;;20.75;12.32;;;;;;;6.81;79.09;102887.13;4986486;28;20076;-70
2022/04/29 06:51:08;;;;;;;23.30;12.32;;;;;;;6.85;78.69;102882.72;4986543;28;20410;-72
2022/04/29 06:53:33;;;;;;;19.45;12.45;;;;;;;6.89;78.40;102885.16;4988250;28;20419;-70
2022/04/29 06:55:58;;;;;;;19.25;11.65;;;;;;;6.90;78.58;102892.00;4984439;28;20422;-70
2022/04/29 06:58:24;;;;;;;19.17;12.55;;;;;;;6.96;78.95;102887.53;4985914;28;20421;-71
2022/04/29 07:00:49;;;;;;;18.55;11.52;;;;;;;6.98;78.46;102883.16;4987245;28;20026;-70
2022/04/29 07:03:14;;;;;;;20.52;12.25;;;;;;;6.96;77.93;102879.78;4986028;28;20026;-71
2022/04/29 07:05:41;;;;;;;22.67;13.38;;;;;;;7.05;77.97;102897.53;4986612;28;20125;-70
2022/04/29 07:08:07;;;;;;;23.17;11.57;;;;;;;7.05;78.84;102894.94;4986940;28;20049;-71
2022/04/29 07:10:33;;;;;;;19.40;12.57;;;;;;;7.05;77.41;102902.69;5002209;28;20030;-72
2022/04/29 07:12:59;;;;;;;19.30;12.10;;;;;;;7.08;77.81;102900.03;4986530;28;20037;-72
2022/04/29 07:15:24;;;;;;;20.88;12.50;;;;;;;7.17;78.22;102915.22;4986506;28;20026;-71
2022/04/29 07:17:50;;;;;;;21.02;12.10;;;;;;;7.15;77.39;102911.81;4986706;28;20045;-71
2022/04/29 07:20:16;;;;;;;22.40;12.13;;;;;;;7.18;77.61;102912.56;4970653;28;20039;-71
2022/04/29 07:22:42;;;;;;;20.98;12.60;;;;;;;7.25;78.20;102908.03;4985691;28;20046;-71
2022/04/29 07:25:11;;;;;;;23.70;13.20;;;;;;;7.24;78.12;102908.94;4986603;28;20040;-70
2022/04/29 07:27:38;;;;;;;19.98;13.10;;;;;;;7.31;79.04;102907.81;4987040;28;20074;-71
2022/04/29 07:30:05;;;;;;;19.02;12.88;;;;;;;7.36;78.33;102905.94;4987395;28;20031;-71
2022/04/29 07:32:30;;;;;;;19.67;12.88;;;;;;;7.38;77.39;102887.78;4985703;28;20030;-70
2022/04/29 07:43:09;;;;;;;21.08;13.15;;;;;;;7.77;76.12;102890.69;4986378;28;20041;-71
2022/04/29 07:45:36;;;;;;;20.15;12.00;;;;;;;7.80;77.31;102890.59;4986343;28;20064;-71
2022/04/29 07:48:06;;;;;;;19.42;12.07;;;;;;;7.87;76.91;102892.03;4988818;28;20041;-71
2022/04/29 07:50:35;;;;;;;19.85;12.95;;;;;;;7.92;76.04;102889.28;4985371;28;20038;-71
2022/04/29 07:53:02;;;;;;;19.05;12.48;;;;;;;7.94;75.12;102888.31;4983044;28;20030;-70
2022/04/29 07:55:28;;;;;;;22.88;11.65;;;;;;;8.04;74.99;102888.81;4980572;28;20034;-71
2022/04/29 07:57:53;;;;;;;20.40;12.45;;;;;;;8.07;75.38;102882.69;4989203;28;20022;-70
2022/04/29 08:00:19;;;;;;;20.00;12.45;;;;;;;8.03;74.82;102884.56;4989690;28;20032;-70
2022/04/29 08:02:45;;;;;;;17.80;12.30;;;;;;;8.16;74.69;102892.69;4990122;28;20030;-71
2022/04/29 08:05:10;;;;;;;22.10;12.82;;;;;;;8.14;74.64;102897.06;4987248;28;20082;-71
2022/04/29 08:07:37;;;;;;;17.80;12.45;;;;;;;8.15;74.96;102893.59;4985527;28;20681;-70
2022/04/29 08:10:03;;;;;;;17.70;11.85;;;;;;;8.23;74.74;102905.31;4989291;28;20520;-69
2022/04/29 08:12:29;;;;;;;19.35;12.68;;;;;;;8.27;74.80;102890.53;4989723;28;20037;-70
2022/04/29 08:14:56;;;;;;;19.52;12.43;;;;;;;8.31;74.83;102894.66;4989484;28;20461;-72
2022/04/29 08:17:22;;;;;;;19.30;12.90;;;;;;;8.27;74.25;102885.34;4989083;28;20038;-70
2022/04/29 08:19:51;;;;;;;21.20;12.63;;;;;;;8.45;75.02;102900.19;4990411;28;20033;-70
2022/04/29 08:22:18;;;;;;;19.08;12.52;;;;;;;8.54;74.69;102903.28;4988835;28;20119;-71
2022/04/29 08:24:44;;;;;;;18.92;12.88;;;;;;;8.52;73.85;102906.78;4990433;28;20026;-71
2022/04/29 08:27:10;;;;;;;19.60;12.88;;;;;;;8.55;73.88;102915.34;4989464;28;20026;-69
2022/04/29 08:29:36;;;;;;;18.42;13.10;;;;;;;8.67;74.05;102905.34;4990165;28;20022;-71
2022/04/29 08:32:04;;;;;;;16.00;12.00;;;;;;;8.71;73.72;102906.03;4989763;28;20429;-71
2022/04/29 08:34:29;;;;;;;19.20;12.32;;;;;;;8.80;73.06;102905.69;4987075;28;20034;-71
2022/04/29 08:36:54;;;;;;;17.73;12.55;;;;;;;8.86;72.61;102910.59;4986589;28;20036;-70
2022/04/29 08:39:19;;;;;;;18.70;11.82;;;;;;;8.96;72.93;102911.91;4987284;28;20033;-69
2022/04/29 08:41:45;;;;;;;18.27;12.40;;;;;;;9.00;72.31;102897.97;4989502;28;20065;-69
2022/04/29 08:44:11;;;;;;;18.70;11.13;;;;;;;9.11;72.40;102904.41;4988472;28;20470;-70
2022/04/29 08:46:40;;;;;;;15.85;12.25;;;;;;;9.17;72.37;102898.97;4989396;28;20026;-69
2022/04/29 08:49:07;;;;;;;18.83;11.02;;;;;;;9.20;71.59;102893.66;4989278;28;20092;-70
2022/04/29 08:51:36;;;;;;;18.55;11.25;;;;;;;9.32;71.40;102893.13;4988907;28;20038;-69
2022/04/29 08:54:02;;;;;;;;;;;;;;;9.43;71.56;102900.44;4997652;28;20065;-69
2022/04/29 08:59:12;;;;;;;15.90;11.15;;;;;;;9.42;70.79;102915.16;4988396;28;20137;-69
2022/04/29 09:01:40;;;;;;;19.17;10.90;;;;;;;9.47;71.46;102908.03;4988987;28;20113;-71
2022/04/29 09:04:06;;;;;;;16.48;9.98;;;;;;;9.51;70.48;102899.19;4988173;28;20070;-70
2022/04/29 09:06:32;;;;;;;16.70;11.20;;;;;;;9.54;72.09;102899.06;4987947;28;20073;-70
2022/04/29 09:09:08;;;;;;;14.88;11.00;;;;;;;9.63;71.17;102903.00;4987457;28;20297;-70
2022/04/29 09:11:34;;;;;;;22.13;10.73;;;;;;;9.69;70.21;102901.88;4989072;28;20466;-68
2022/04/29 09:14:20;;;;;;;16.55;11.32;;;;;;;9.68;70.30;102887.25;4988792;28;20081;-69
2022/04/29 09:16:46;;;;;;;16.20;10.48;;;;;;;9.76;70.13;102882.56;4988865;28;20153;-71
2022/04/29 09:19:35;;;;;;;18.88;11.85;;;;;;;9.80;70.38;102894.47;4988280;28;20116;-71
2022/04/29 09:22:08;;;;;;;16.77;11.45;;;;;;;9.94;69.69;102902.47;4988158;28;20034;-70
2022/04/29 09:24:34;;;;;;;15.25;10.30;;;;;;;9.94;69.51;102896.44;4988638;28;20092;-71
2022/04/29 09:27:01;;;;;;;15.52;10.00;;;;;;;9.88;68.29;102892.38;4987156;28;20033;-71
2022/04/29 09:29:29;;;;;;;12.40;8.73;;;;;;;9.92;66.41;102900.84;4983449;28;20046;-70
2022/04/29 09:32:00;;;;;;;17.88;9.50;;;;;;;10.03;67.56;102909.81;4968867;28;20034;-71
2022/04/29 09:34:50;;;;;;;14.52;8.60;;;;;;;10.11;66.87;102905.13;4984794;28;20493;-70
2022/04/29 09:37:17;;;;;;;13.80;9.40;;;;;;;10.21;67.72;102905.53;4983696;28;20073;-72
2022/04/29 09:39:57;;;;;;;15.40;8.30;;;;;;;10.25;66.17;102901.06;4988393;28;20034;-70
2022/04/29 09:42:23;;;;;;;13.25;9.10;;;;;;;10.17;66.08;102883.25;4986676;28;20057;-71
2022/04/29 09:44:49;;;;;;;14.05;8.68;;;;;;;10.34;66.81;102891.09;4993575;28;20121;-70
2022/04/29 09:47:16;;;;;;;13.75;9.13;;;;;;;10.33;66.23;102888.59;5007066;28;20068;-71
2022/04/29 09:49:54;;;;;;;11.85;8.25;;;;;;;10.32;65.51;102886.88;5007192;28;20018;-71
2022/04/29 09:52:20;;;;;;;14.00;8.65;;;;;;;10.34;65.30;102890.28;5000252;28;20126;-71
2022/04/29 09:54:46;;;;;;;13.68;8.13;;;;;;;10.28;64.13;102885.38;4989405;28;20109;-71
2022/04/29 09:57:18;;;;;;;12.98;8.25;;;;;;;10.28;63.85;102890.56;4987277;28;20026;-71
2022/04/29 09:59:57;;;;;;;14.05;8.35;;;;;;;10.19;63.55;102865.03;4988162;28;20420;-71
2022/04/29 10:02:24;;;;;;;11.60;8.27;;;;;;;10.31;63.82;102890.41;4986163;28;20034;-71
2022/04/29 10:04:51;;;;;;;12.95;8.20;;;;;;;10.38;65.12;102881.44;4974799;28;20537;-71
2022/04/29 10:07:18;;;;;;;13.10;8.45;;;;;;;10.43;63.64;102882.03;4967921;28;20038;-70
2022/04/29 10:09:52;;;;;;;12.25;8.40;;;;;;;10.46;63.14;102881.91;4968015;28;20517;-71
2022/04/29 10:12:22;;;;;;;13.98;8.85;;;;;;;10.50;62.83;102886.03;4974240;28;20026;-71
2022/04/29 10:14:52;;;;;;;13.32;8.65;;;;;;;10.58;64.74;102886.50;4987783;28;20588;-71
2022/04/29 10:22:50;;;;;;;13.60;8.32;;;;;;;10.75;63.79;102877.03;4988581;28;20077;-70
2022/04/29 10:25:18;;;;;;;13.70;8.52;;;;;;;10.72;63.10;102865.03;4987548;28;20414;-71
2022/04/29 10:27:44;;;;;;;13.55;9.20;;;;;;;10.81;64.08;102869.78;4987155;28;20105;-70
2022/04/29 10:30:10;;;;;;;13.77;8.98;;;;;;;10.92;63.52;102881.41;4986653;28;20085;-71
2022/04/29 10:33:10;;;;;;;12.80;8.68;;;;;;;10.98;63.35;102876.72;4986350;28;20018;-71
2022/04/29 10:35:49;;;;;;;16.08;9.50;;;;;;;10.94;62.96;102876.97;4984465;28;20068;-70
2022/04/29 10:38:17;;;;;;;14.80;9.68;;;;;;;10.88;63.89;102865.13;4973261;28;20037;-70
2022/04/29 10:40:43;;;;;;;13.90;9.50;;;;;;;11.08;63.80;102888.34;4974591;28;20114;-70
2022/04/29 10:43:10;;;;;;;13.77;9.30;;;;;;;11.07;62.51;102886.66;4980076;28;20038;-70
2022/04/29 10:46:05;;;;;;;13.77;9.20;;;;;;;11.17;63.80;102877.47;4977658;28;20115;-70
2022/04/29 10:48:38;;;;;;;14.45;9.57;;;;;;;11.12;64.76;102873.41;4979464;28;20290;-71
2022/04/29 10:51:16;;;;;;;11.68;9.63;;;;;;;11.13;63.13;102873.38;4986005;28;20050;-71
2022/04/29 10:53:46;;;;;;;13.82;9.73;;;;;;;11.07;63.53;102871.09;4983967;28;20078;-71
2022/04/29 10:56:27;;;;;;;15.02;9.38;;;;;;;11.15;63.99;102868.09;4986171;28;20052;-72
2022/04/29 10:58:53;;;;;;;14.68;8.85;;;;;;;11.09;63.07;102869.22;4983450;28;20061;-71
2022/04/29 11:01:24;;;;;;;14.52;9.95;;;;;;;11.15;63.62;102871.50;4986304;28;20482;-71
2022/04/29 11:03:49;;;;;;;13.65;10.10;;;;;;;11.16;63.71;102859.38;4985684;28;20030;-71
2022/04/29 11:06:15;;;;;;;13.98;9.95;;;;;;;11.16;62.95;102860.19;4986187;28;20042;-71
2022/04/29 11:08:43;;;;;;;12.95;9.55;;;;;;;11.30;63.24;102867.31;4986458;28;20499;-71
2022/04/29 11:11:09;;;;;;;15.15;9.90;;;;;;;11.38;62.74;102859.09;4986375;28;20459;-71
2022/04/29 11:13:37;;;;;;;14.65;9.85;;;;;;;11.35;63.19;102854.03;4986239;28;20037;-71
2022/04/29 11:16:14;;;;;;;14.75;9.35;;;;;;;11.35;62.47;102847.09;4986270;28;20037;-71
2022/04/29 11:18:42;;;;;;;15.63;9.70;;;;;;;11.43;63.38;102849.31;4986324;28;20072;-72
2022/04/29 11:26:49;;;;;;;15.45;10.30;;;;;;;11.52;61.48;102856.59;4975064;28;20045;-71
2022/04/29 11:29:16;;;;;;;15.38;9.05;;;;;;;11.57;62.12;102854.59;4985984;28;20058;-71
2022/04/29 11:31:41;;;;;;;12.85;9.70;;;;;;;11.66;61.68;102848.06;4986074;28;20061;-71
2022/04/29 11:34:11;;;;;;;14.05;9.05;;;;;;;11.67;61.17;102850.59;4983535;28;20031;-71
2022/04/29 11:36:38;;;;;;;15.02;9.40;;;;;;;11.69;61.17;102843.53;4986809;28;20522;-71
2022/04/29 11:39:17;;;;;;;15.23;9.40;;;;;;;11.78;62.71;102843.97;4985962;28;20026;-68
2022/04/29 11:41:57;;;;;;;14.73;9.38;;;;;;;11.84;62.32;102836.72;4986160;28;20112;-71
2022/04/29 11:44:45;;;;;;;14.80;9.07;;;;;;;11.90;62.10;102838.13;4985711;28;20089;-73